sensor_id;sensor_type;location;lat;lon;timestamp;pressure;altitude;pressure_sealevel;temperature;humidity
70954;BME280;58618;47.490;8.736;2022-07-29T00:02:17;96450.81;;;16.41;100.00
70954;BME280;58618;47.490;8.736;2022-07-29T00:05:05;96442.53;;;16.39;100.00
70954;BME280;58618;47.490;8.736;2022-07-29T00:07:52;96452.22;;;16.39;100.00
70954;BME280;58618;47.490;8.736;2022-07-29T00:10:40;96436.59;;;16.30;100.00
70954;BME280;58618;47.490;8.736;2022-07-29T00:13:27;96446.66;;;16.40;100.00
70954;BME280;58618;47.490;8.736;2022-07-29T00:16:16;96441.19;;;16.33;100.00
70954;BME280;58618;47.490;8.736;2022-07-29T00:19:04;96446.41;;;16.33;100.00
70954;BME280;58618;47.490;8.736;2022-07-29T00:21:51;96439.38;;;16.25;100.00
70954;BME280;58618;47.490;8.736;2022-07-29T00:24:39;96439.38;;;16.08;100.00
70954;BME280;58618;47.490;8.736;2022-07-29T00:27:26;96441.81;;;16.13;100.00
70954;BME280;58618;47.490;8.736;2022-07-29T00:30:14;96441.22;;;16.16;100.00
70954;BME280;58618;47.490;8.736;2022-07-29T00:33:02;96439.56;;;16.12;100.00
70954;BME280;58618;47.490;8.736;2022-07-29T00:35:50;96434.66;;;16.01;100.00
70954;BME280;58618;47.490;8.736;2022-07-29T00:38:36;96434.50;;;15.98;100.00
70954;BME280;58618;47.490;8.736;2022-07-29T00:41:23;96433.72;;;15.97;100.00
70954;BME280;58618;47.490;8.736;2022-07-29T00:44:11;96429.28;;;15.98;100.00
70954;BME280;58618;47.490;8.736;2022-07-29T00:46:58;96426.25;;;15.96;100.00
70954;BME280;58618;47.490;8.736;2022-07-29T00:49:47;96425.31;;;15.92;100.00
70954;BME280;58618;47.490;8.736;2022-07-29T00:52:37;96410.03;;;15.82;100.00
70954;BME280;58618;47.490;8.736;2022-07-29T00:55:24;96417.69;;;15.87;100.00
70954;BME280;58618;47.490;8.736;2022-07-29T00:58:12;96423.34;;;15.89;100.00
70954;BME280;58618;47.490;8.736;2022-07-29T01:01:00;96414.63;;;15.68;100.00
70954;BME280;58618;47.490;8.736;2022-07-29T01:03:47;96417.69;;;15.70;100.00
70954;BME280;58618;47.490;8.736;2022-07-29T01:06:36;96407.16;;;15.75;100.00
70954;BME280;58618;47.490;8.736;2022-07-29T01:09:24;96406.06;;;15.76;100.00
70954;BME280;58618;47.490;8.736;2022-07-29T01:12:13;96411.56;;;15.83;100.00
70954;BME280;58618;47.490;8.736;2022-07-29T01:15:03;96406.06;;;15.76;100.00
70954;BME280;58618;47.490;8.736;2022-07-29T01:18:05;96395.38;;;15.69;100.00
70954;BME280;58618;47.490;8.736;2022-07-29T01:24:23;96399.03;;;15.85;100.00
70954;BME280;58618;47.490;8.736;2022-07-29T01:27:30;96399.47;;;15.87;100.00
70954;BME280;58618;47.490;8.736;2022-07-29T01:30:22;96388.00;;;15.88;100.00
70954;BME280;58618;47.490;8.736;2022-07-29T01:33:15;96402.06;;;16.04;100.00
70954;BME280;58618;47.490;8.736;2022-07-29T01:36:23;96399.28;;;16.09;100.00
70954;BME280;58618;47.490;8.736;2022-07-29T01:39:12;96396.97;;;16.08;100.00
70954;BME280;58618;47.490;8.736;2022-07-29T01:42:08;96390.06;;;16.20;100.00
70954;BME280;58618;47.490;8.736;2022-07-29T01:44:59;96394.66;;;16.23;100.00
70954;BME280;58618;47.490;8.736;2022-07-29T01:47:54;96395.13;;;16.25;100.00
70954;BME280;58618;47.490;8.736;2022-07-29T01:50:47;96392.03;;;16.32;100.00
70954;BME280;58618;47.490;8.736;2022-07-29T01:53:37;96388.41;;;16.16;100.00
70954;BME280;58618;47.490;8.736;2022-07-29T01:56:27;96393.75;;;16.19;100.00
70954;BME280;58618;47.490;8.736;2022-07-29T01:59:20;96394.38;;;16.16;100.00
70954;BME280;58618;47.490;8.736;2022-07-29T02:02:08;96404.00;;;16.24;100.00
70954;BME280;58618;47.490;8.736;2022-07-29T02:05:00;96394.50;;;16.20;100.00
70954;BME280;58618;47.490;8.736;2022-07-29T02:07:49;96406.66;;;16.07;100.00
70954;BME280;58618;47.490;8.736;2022-07-29T02:10:38;96409.53;;;16.14;100.00
70954;BME280;58618;47.490;8.736;2022-07-29T02:13:27;96400.47;;;16.20;100.00
70954;BME280;58618;47.490;8.736;2022-07-29T02:16:18;96411.53;;;16.17;100.00
70954;BME280;58618;47.490;8.736;2022-07-29T02:19:08;96416.44;;;16.10;100.00
70954;BME280;58618;47.490;8.736;2022-07-29T02:21:59;96412.47;;;16.04;100.00
70954;BME280;58618;47.490;8.736;2022-07-29T02:24:48;96402.22;;;15.99;100.00
70954;BME280;58618;47.490;8.736;2022-07-29T02:27:37;96401.78;;;15.80;100.00
70954;BME280;58618;47.490;8.736;2022-07-29T02:30:27;96401.78;;;15.80;100.00
70954;BME280;58618;47.490;8.736;2022-07-29T02:33:16;96400.13;;;15.75;100.00
70954;BME280;58618;47.490;8.736;2022-07-29T02:36:04;96408.53;;;15.81;100.00
70954;BME280;58618;47.490;8.736;2022-07-29T02:38:55;96404.97;;;15.77;100.00
70954;BME280;58618;47.490;8.736;2022-07-29T02:41:47;96404.22;;;15.68;100.00
70954;BME280;58618;47.490;8.736;2022-07-29T02:44:36;96408.53;;;15.63;100.00
70954;BME280;58618;47.490;8.736;2022-07-29T02:47:29;96403.16;;;15.69;100.00
70954;BME280;58618;47.490;8.736;2022-07-29T02:50:23;96409.75;;;15.75;100.00
70954;BME280;58618;47.490;8.736;2022-07-29T02:53:18;96409.28;;;15.73;100.00
70954;BME280;58618;47.490;8.736;2022-07-29T02:56:12;96407.63;;;15.59;100.00
70954;BME280;58618;47.490;8.736;2022-07-29T02:59:03;96397.22;;;15.59;100.00
70954;BME280;58618;47.490;8.736;2022-07-29T03:01:51;96397.31;;;15.46;100.00
70954;BME280;58618;47.490;8.736;2022-07-29T03:04:40;96401.03;;;15.53;100.00
70954;BME280;58618;47.490;8.736;2022-07-29T03:07:29;96392.41;;;15.44;100.00
70954;BME280;58618;47.490;8.736;2022-07-29T03:10:17;96390.44;;;15.41;100.00
70954;BME280;58618;47.490;8.736;2022-07-29T03:13:07;96398.72;;;15.43;100.00
70954;BME280;58618;47.490;8.736;2022-07-29T03:15:55;96399.00;;;15.42;100.00
70954;BME280;58618;47.490;8.736;2022-07-29T03:18:44;96402.38;;;15.42;100.00
70954;BME280;58618;47.490;8.736;2022-07-29T03:21:31;96400.50;;;15.34;100.00
70954;BME280;58618;47.490;8.736;2022-07-29T03:24:29;96404.19;;;15.50;100.00
70954;BME280;58618;47.490;8.736;2022-07-29T03:27:17;96405.16;;;15.54;100.00
70954;BME280;58618;47.490;8.736;2022-07-29T03:30:07;96407.63;;;15.59;100.00
70954;BME280;58618;47.490;8.736;2022-07-29T03:32:55;96412.66;;;15.65;100.00
70954;BME280;58618;47.490;8.736;2022-07-29T03:35:43;96419.22;;;15.71;100.00
70954;BME280;58618;47.490;8.736;2022-07-29T03:38:33;96410.97;;;15.69;100.00
70954;BME280;58618;47.490;8.736;2022-07-29T03:41:22;96418.75;;;15.51;100.00
70954;BME280;58618;47.490;8.736;2022-07-29T03:44:12;96419.50;;;15.43;100.00
70954;BME280;58618;47.490;8.736;2022-07-29T03:47:02;96430.19;;;15.42;100.00
70954;BME280;58618;47.490;8.736;2022-07-29T03:49:52;96438.81;;;15.59;100.00
70954;BME280;58618;47.490;8.736;2022-07-29T03:52:41;96437.09;;;15.55;100.00
70954;BME280;58618;47.490;8.736;2022-07-29T03:55:36;96431.91;;;15.55;100.00
70954;BME280;58618;47.490;8.736;2022-07-29T03:58:26;96420.41;;;15.30;100.00
70954;BME280;58618;47.490;8.736;2022-07-29T04:01:14;96418.25;;;15.32;100.00
70954;BME280;58618;47.490;8.736;2022-07-29T04:04:05;96425.97;;;15.54;100.00
70954;BME280;58618;47.490;8.736;2022-07-29T04:06:52;96411.56;;;15.66;100.00
70954;BME280;58618;47.490;8.736;2022-07-29T04:09:39;96415.22;;;15.82;100.00
70954;BME280;58618;47.490;8.736;2022-07-29T04:12:27;96410.47;;;15.92;100.00
70954;BME280;58618;47.490;8.736;2022-07-29T04:15:14;96410.31;;;16.06;100.00
70954;BME280;58618;47.490;8.736;2022-07-29T04:18:02;96415.19;;;16.16;100.00
70954;BME280;58618;47.490;8.736;2022-07-29T04:20:50;96407.22;;;16.21;99.29
70954;BME280;58618;47.490;8.736;2022-07-29T04:23:38;96408.13;;;16.25;100.00
70954;BME280;58618;47.490;8.736;2022-07-29T04:26:25;96410.25;;;16.23;98.78
70954;BME280;58618;47.490;8.736;2022-07-29T04:29:12;96405.38;;;16.22;99.06
70954;BME280;58618;47.490;8.736;2022-07-29T04:32:00;96409.66;;;16.26;99.19
70954;BME280;58618;47.490;8.736;2022-07-29T04:34:47;96414.09;;;16.26;99.40
70954;BME280;58618;47.490;8.736;2022-07-29T04:37:36;96418.84;;;16.32;98.83
70954;BME280;58618;47.490;8.736;2022-07-29T04:40:23;96414.84;;;16.35;99.06
70954;BME280;58618;47.490;8.736;2022-07-29T04:43:11;96420.19;;;16.38;99.04
70954;BME280;58618;47.490;8.736;2022-07-29T04:45:58;96420.81;;;16.44;98.37
70954;BME280;58618;47.490;8.736;2022-07-29T04:48:45;96420.03;;;16.43;99.01
70954;BME280;58618;47.490;8.736;2022-07-29T04:51:33;96425.06;;;16.48;98.32
70954;BME280;58618;47.490;8.736;2022-07-29T04:54:22;96421.69;;;16.48;99.04
70954;BME280;58618;47.490;8.736;2022-07-29T04:57:10;96427.94;;;16.56;98.48
70954;BME280;58618;47.490;8.736;2022-07-29T05:00:06;96410.81;;;16.55;97.76
70954;BME280;58618;47.490;8.736;2022-07-29T05:02:53;96416.00;;;16.63;97.83
70954;BME280;58618;47.490;8.736;2022-07-29T05:05:41;96407.25;;;16.68;99.06
70954;BME280;58618;47.490;8.736;2022-07-29T05:08:28;96416.59;;;16.69;97.99
70954;BME280;58618;47.490;8.736;2022-07-29T05:11:17;96414.09;;;16.81;97.52
70954;BME280;58618;47.490;8.736;2022-07-29T05:14:04;96396.03;;;16.76;97.18
70954;BME280;58618;47.490;8.736;2022-07-29T05:16:52;96405.59;;;16.93;96.18
70954;BME280;58618;47.490;8.736;2022-07-29T05:19:43;96415.63;;;17.11;97.52
70954;BME280;58618;47.490;8.736;2022-07-29T05:22:31;96415.44;;;17.16;97.07
70954;BME280;58618;47.490;8.736;2022-07-29T05:25:22;96426.88;;;17.24;96.00
70954;BME280;58618;47.490;8.736;2022-07-29T05:28:22;96394.59;;;17.16;95.90
70954;BME280;58618;47.490;8.736;2022-07-29T05:31:09;96424.47;;;17.40;94.64
70954;BME280;58618;47.490;8.736;2022-07-29T05:33:57;96433.31;;;17.47;94.21
70954;BME280;58618;47.490;8.736;2022-07-29T05:36:44;96435.44;;;17.54;93.90
70954;BME280;58618;47.490;8.736;2022-07-29T05:39:32;96435.16;;;17.47;93.42
70954;BME280;58618;47.490;8.736;2022-07-29T05:42:19;96423.09;;;17.42;93.78
70954;BME280;58618;47.490;8.736;2022-07-29T05:45:09;96449.09;;;17.59;94.58
70954;BME280;58618;47.490;8.736;2022-07-29T05:47:56;96447.25;;;17.60;92.95
70954;BME280;58618;47.490;8.736;2022-07-29T05:50:44;96442.56;;;17.45;93.62
70954;BME280;58618;47.490;8.736;2022-07-29T05:53:31;96447.09;;;17.77;93.78
70954;BME280;58618;47.490;8.736;2022-07-29T05:56:18;96452.47;;;18.13;90.46
70954;BME280;58618;47.490;8.736;2022-07-29T05:59:05;96457.88;;;18.41;90.93
70954;BME280;58618;47.490;8.736;2022-07-29T06:01:54;96441.31;;;19.07;86.32
70954;BME280;58618;47.490;8.736;2022-07-29T06:04:43;96438.66;;;19.43;85.27
70954;BME280;58618;47.490;8.736;2022-07-29T06:07:30;96444.88;;;19.51;83.60
70954;BME280;58618;47.490;8.736;2022-07-29T06:10:18;96448.47;;;19.46;85.73
70954;BME280;58618;47.490;8.736;2022-07-29T06:13:06;96461.59;;;19.86;84.94
70954;BME280;58618;47.490;8.736;2022-07-29T06:15:53;96453.22;;;20.67;80.91
70954;BME280;58618;47.490;8.736;2022-07-29T06:18:42;96458.69;;;22.14;72.52
70954;BME280;58618;47.490;8.736;2022-07-29T06:21:29;96458.13;;;22.24;67.94
70954;BME280;58618;47.490;8.736;2022-07-29T06:24:16;96467.53;;;22.06;67.75
70954;BME280;58618;47.490;8.736;2022-07-29T06:27:04;96463.03;;;22.07;69.34
70954;BME280;58618;47.490;8.736;2022-07-29T06:29:51;96469.94;;;21.96;70.12
70954;BME280;58618;47.490;8.736;2022-07-29T06:32:38;96472.69;;;21.83;71.21
70954;BME280;58618;47.490;8.736;2022-07-29T06:35:27;96484.28;;;21.98;71.79
70954;BME280;58618;47.490;8.736;2022-07-29T06:38:14;96476.44;;;21.47;72.15
70954;BME280;58618;47.490;8.736;2022-07-29T06:41:02;96487.81;;;21.90;71.74
70954;BME280;58618;47.490;8.736;2022-07-29T06:43:50;96485.22;;;22.28;70.73
70954;BME280;58618;47.490;8.736;2022-07-29T06:46:38;96497.66;;;22.96;66.31
70954;BME280;58618;47.490;8.736;2022-07-29T06:49:25;96492.94;;;22.41;65.54
70954;BME280;58618;47.490;8.736;2022-07-29T06:52:14;96505.28;;;22.17;70.34
70954;BME280;58618;47.490;8.736;2022-07-29T06:55:02;96509.56;;;22.06;69.00
70954;BME280;58618;47.490;8.736;2022-07-29T06:57:50;96520.97;;;21.79;71.09
70954;BME280;58618;47.490;8.736;2022-07-29T07:00:37;96524.88;;;21.50;70.27
70954;BME280;58618;47.490;8.736;2022-07-29T07:03:24;96525.97;;;21.49;72.18
70954;BME280;58618;47.490;8.736;2022-07-29T07:06:12;96533.59;;;21.38;73.41
70954;BME280;58618;47.490;8.736;2022-07-29T07:09:01;96539.47;;;21.16;75.34
70954;BME280;58618;47.490;8.736;2022-07-29T07:11:48;96542.56;;;21.06;73.40
70954;BME280;58618;47.490;8.736;2022-07-29T07:14:35;96543.75;;;20.93;73.36
70954;BME280;58618;47.490;8.736;2022-07-29T07:17:23;96541.88;;;20.78;72.95
70954;BME280;58618;47.490;8.736;2022-07-29T07:20:10;96541.50;;;20.63;73.72
70954;BME280;58618;47.490;8.736;2022-07-29T07:22:58;96548.84;;;20.58;74.98
70954;BME280;58618;47.490;8.736;2022-07-29T07:25:46;96532.84;;;20.47;75.26
70954;BME280;58618;47.490;8.736;2022-07-29T07:28:34;96536.38;;;20.39;75.72
70954;BME280;58618;47.490;8.736;2022-07-29T07:31:21;96527.25;;;20.21;77.67
70954;BME280;58618;47.490;8.736;2022-07-29T07:34:08;96520.34;;;20.01;76.34
70954;BME280;58618;47.490;8.736;2022-07-29T07:36:56;96521.09;;;20.01;79.58
70954;BME280;58618;47.490;8.736;2022-07-29T07:39:43;96535.19;;;19.97;81.56
70954;BME280;58618;47.490;8.736;2022-07-29T07:42:32;96534.41;;;19.96;82.74
70954;BME280;58618;47.490;8.736;2022-07-29T07:45:20;96531.06;;;19.83;82.78
70954;BME280;58618;47.490;8.736;2022-07-29T07:48:07;96532.50;;;19.81;85.48
70954;BME280;58618;47.490;8.736;2022-07-29T07:50:56;96526.72;;;19.63;83.98
70954;BME280;58618;47.490;8.736;2022-07-29T07:53:43;96507.13;;;19.09;88.99
70954;BME280;58618;47.490;8.736;2022-07-29T07:56:31;96496.84;;;18.79;90.74
70954;BME280;58618;47.490;8.736;2022-07-29T07:59:19;96494.78;;;18.52;92.34
70954;BME280;58618;47.490;8.736;2022-07-29T08:02:07;96493.25;;;18.51;92.14
70954;BME280;58618;47.490;8.736;2022-07-29T08:04:54;96475.66;;;17.94;94.98
70954;BME280;58618;47.490;8.736;2022-07-29T08:07:42;96495.66;;;17.90;98.20
70954;BME280;58618;47.490;8.736;2022-07-29T08:10:29;96518.19;;;18.15;97.36
70954;BME280;58618;47.490;8.736;2022-07-29T08:13:34;96534.31;;;18.30;95.45
70954;BME280;58618;47.490;8.736;2022-07-29T08:16:24;96534.59;;;18.37;96.71
70954;BME280;58618;47.490;8.736;2022-07-29T08:19:11;96547.03;;;18.52;97.87
70954;BME280;58618;47.490;8.736;2022-07-29T08:21:58;96553.31;;;18.60;95.43
70954;BME280;58618;47.490;8.736;2022-07-29T08:24:46;96556.03;;;18.63;95.86
70954;BME280;58618;47.490;8.736;2022-07-29T08:27:38;96539.94;;;18.61;95.92
70954;BME280;58618;47.490;8.736;2022-07-29T08:30:25;96547.16;;;18.76;97.04
70954;BME280;58618;47.490;8.736;2022-07-29T08:33:14;96555.34;;;18.87;97.94
70954;BME280;58618;47.490;8.736;2022-07-29T08:36:01;96562.78;;;18.97;96.54
70954;BME280;58618;47.490;8.736;2022-07-29T08:38:49;96558.94;;;18.94;95.86
70954;BME280;58618;47.490;8.736;2022-07-29T08:41:36;96564.41;;;19.02;96.80
70954;BME280;58618;47.490;8.736;2022-07-29T08:44:24;96561.69;;;18.98;95.13
70954;BME280;58618;47.490;8.736;2022-07-29T08:47:14;96560.94;;;19.10;98.32
70954;BME280;58618;47.490;8.736;2022-07-29T08:50:03;96558.28;;;18.85;98.52
70954;BME280;58618;47.490;8.736;2022-07-29T08:52:50;96575.50;;;18.98;97.39
70954;BME280;58618;47.490;8.736;2022-07-29T08:55:39;96569.19;;;18.87;94.87
70954;BME280;58618;47.490;8.736;2022-07-29T08:58:31;96576.31;;;18.66;97.86
70954;BME280;58618;47.490;8.736;2022-07-29T09:01:22;96580.28;;;18.84;98.72
70954;BME280;58618;47.490;8.736;2022-07-29T09:04:12;96572.88;;;18.86;93.58
70954;BME280;58618;47.490;8.736;2022-07-29T09:07:03;96587.13;;;18.89;94.29
70954;BME280;58618;47.490;8.736;2022-07-29T09:09:51;96591.53;;;19.09;96.13
70954;BME280;58618;47.490;8.736;2022-07-29T09:12:39;96584.06;;;19.32;96.69
70954;BME280;58618;47.490;8.736;2022-07-29T09:15:26;96589.88;;;19.50;95.81
70954;BME280;58618;47.490;8.736;2022-07-29T09:18:33;96573.84;;;19.63;94.11
70954;BME280;58618;47.490;8.736;2022-07-29T09:21:20;96574.25;;;19.90;92.62
70954;BME280;58618;47.490;8.736;2022-07-29T09:24:48;96574.84;;;20.23;89.81
70954;BME280;58618;47.490;8.736;2022-07-29T09:27:36;96566.06;;;20.87;86.61
70954;BME280;58618;47.490;8.736;2022-07-29T09:30:23;96567.16;;;21.29;85.71
70954;BME280;58618;47.490;8.736;2022-07-29T09:33:11;96568.72;;;21.49;80.21
70954;BME280;58618;47.490;8.736;2022-07-29T09:35:59;96577.09;;;21.71;77.32
70954;BME280;58618;47.490;8.736;2022-07-29T09:38:57;96572.63;;;22.45;79.60
70954;BME280;58618;47.490;8.736;2022-07-29T09:41:48;96566.88;;;22.78;75.73
70954;BME280;58618;47.490;8.736;2022-07-29T09:44:44;96574.03;;;22.77;75.88
70954;BME280;58618;47.490;8.736;2022-07-29T09:47:41;96569.78;;;23.14;76.82
70954;BME280;58618;47.490;8.736;2022-07-29T09:50:38;96573.97;;;23.42;75.50
70954;BME280;58618;47.490;8.736;2022-07-29T09:53:31;96572.69;;;23.81;75.16
70954;BME280;58618;47.490;8.736;2022-07-29T09:56:18;96572.16;;;24.58;76.03
70954;BME280;58618;47.490;8.736;2022-07-29T09:59:08;96565.19;;;24.43;71.55
70954;BME280;58618;47.490;8.736;2022-07-29T10:01:57;96565.00;;;24.25;70.69
70954;BME280;58618;47.490;8.736;2022-07-29T10:04:44;96553.59;;;24.18;70.05
70954;BME280;58618;47.490;8.736;2022-07-29T10:07:45;96558.03;;;24.14;70.16
70954;BME280;58618;47.490;8.736;2022-07-29T10:10:35;96555.75;;;24.12;69.83
70954;BME280;58618;47.490;8.736;2022-07-29T10:13:25;96555.91;;;24.23;67.75
70954;BME280;58618;47.490;8.736;2022-07-29T10:16:15;96557.97;;;24.36;69.43
70954;BME280;58618;47.490;8.736;2022-07-29T10:19:03;96546.69;;;24.76;67.74
70954;BME280;58618;47.490;8.736;2022-07-29T10:21:51;96539.00;;;24.98;65.48
70954;BME280;58618;47.490;8.736;2022-07-29T10:24:39;96539.34;;;25.40;62.16
70954;BME280;58618;47.490;8.736;2022-07-29T10:27:26;96514.78;;;25.36;62.12
70954;BME280;58618;47.490;8.736;2022-07-29T10:30:15;96527.41;;;25.57;64.03
70954;BME280;58618;47.490;8.736;2022-07-29T10:33:14;96518.03;;;24.75;61.94
70954;BME280;58618;47.490;8.736;2022-07-29T10:36:19;96525.38;;;25.40;60.87
70954;BME280;58618;47.490;8.736;2022-07-29T10:39:18;96516.94;;;25.75;58.79
70954;BME280;58618;47.490;8.736;2022-07-29T10:42:15;96524.94;;;25.89;54.41
70954;BME280;58618;47.490;8.736;2022-07-29T10:45:05;96517.13;;;25.48;57.67
70954;BME280;58618;47.490;8.736;2022-07-29T10:48:02;96511.97;;;25.66;59.80
70954;BME280;58618;47.490;8.736;2022-07-29T10:50:57;96526.03;;;25.88;57.47
70954;BME280;58618;47.490;8.736;2022-07-29T10:53:47;96514.41;;;26.03;57.38
70954;BME280;58618;47.490;8.736;2022-07-29T10:56:35;96517.25;;;25.62;57.10
70954;BME280;58618;47.490;8.736;2022-07-29T10:59:23;96501.78;;;25.10;57.97
70954;BME280;58618;47.490;8.736;2022-07-29T11:02:45;96518.06;;;25.81;57.26
70954;BME280;58618;47.490;8.736;2022-07-29T11:06:00;96511.91;;;26.31;54.27
70954;BME280;58618;47.490;8.736;2022-07-29T11:09:17;96513.78;;;26.31;56.72
70954;BME280;58618;47.490;8.736;2022-07-29T11:12:45;96508.91;;;26.47;55.25
70954;BME280;58618;47.490;8.736;2022-07-29T11:15:52;96498.31;;;26.33;57.54
70954;BME280;58618;47.490;8.736;2022-07-29T11:22:02;96513.44;;;25.56;57.12
70954;BME280;58618;47.490;8.736;2022-07-29T11:25:12;96509.28;;;25.08;56.91
70954;BME280;58618;47.490;8.736;2022-07-29T11:28:10;96501.88;;;25.24;56.90
70954;BME280;58618;47.490;8.736;2022-07-29T11:31:00;96491.09;;;25.50;56.78
70954;BME280;58618;47.490;8.736;2022-07-29T11:33:48;96471.34;;;25.30;57.84
70954;BME280;58618;47.490;8.736;2022-07-29T11:40:16;96496.97;;;25.84;55.87
70954;BME280;58618;47.490;8.736;2022-07-29T11:43:05;96495.41;;;25.76;56.44
70954;BME280;58618;47.490;8.736;2022-07-29T11:45:52;96505.06;;;25.54;56.80
70954;BME280;58618;47.490;8.736;2022-07-29T11:48:41;96485.56;;;25.70;57.86
70954;BME280;58618;47.490;8.736;2022-07-29T11:51:30;96503.47;;;26.01;59.00
70954;BME280;58618;47.490;8.736;2022-07-29T11:54:24;96500.19;;;25.53;57.75
70954;BME280;58618;47.490;8.736;2022-07-29T11:57:14;96496.25;;;25.91;54.28
70954;BME280;58618;47.490;8.736;2022-07-29T12:00:04;96488.00;;;26.10;53.99
70954;BME280;58618;47.490;8.736;2022-07-29T12:02:54;96498.31;;;26.36;54.48
70954;BME280;58618;47.490;8.736;2022-07-29T12:05:42;96491.13;;;26.37;53.60
70954;BME280;58618;47.490;8.736;2022-07-29T12:08:39;96497.59;;;26.68;54.90
70954;BME280;58618;47.490;8.736;2022-07-29T12:11:27;96493.41;;;26.56;51.49
70954;BME280;58618;47.490;8.736;2022-07-29T12:14:34;96491.94;;;26.59;52.61
70954;BME280;58618;47.490;8.736;2022-07-29T12:17:26;96480.94;;;26.49;53.90
70954;BME280;58618;47.490;8.736;2022-07-29T12:20:22;96487.03;;;26.64;52.71
70954;BME280;58618;47.490;8.736;2022-07-29T12:23:10;96492.72;;;26.87;50.02
70954;BME280;58618;47.490;8.736;2022-07-29T12:25:59;96494.97;;;26.85;47.14
70954;BME280;58618;47.490;8.736;2022-07-29T12:28:46;96494.25;;;26.88;53.58
70954;BME280;58618;47.490;8.736;2022-07-29T12:31:35;96490.44;;;26.79;49.53
70954;BME280;58618;47.490;8.736;2022-07-29T12:34:24;96495.72;;;26.65;51.70
70954;BME280;58618;47.490;8.736;2022-07-29T12:37:14;96491.53;;;26.71;50.93
70954;BME280;58618;47.490;8.736;2022-07-29T12:40:05;96491.16;;;26.65;54.48
70954;BME280;58618;47.490;8.736;2022-07-29T12:43:06;96499.09;;;26.47;52.08
70954;BME280;58618;47.490;8.736;2022-07-29T12:45:56;96501.72;;;26.40;52.46
70954;BME280;58618;47.490;8.736;2022-07-29T12:48:50;96499.44;;;26.39;53.69
70954;BME280;58618;47.490;8.736;2022-07-29T12:51:41;96497.94;;;26.41;56.02
70954;BME280;58618;47.490;8.736;2022-07-29T12:54:28;96499.84;;;26.52;51.29
70954;BME280;58618;47.490;8.736;2022-07-29T12:57:16;96504.38;;;26.47;50.30
70954;BME280;58618;47.490;8.736;2022-07-29T13:00:05;96510.78;;;26.50;56.29
70954;BME280;58618;47.490;8.736;2022-07-29T13:02:56;96520.63;;;26.42;57.28
70954;BME280;58618;47.490;8.736;2022-07-29T13:05:45;96507.72;;;26.34;50.21
70954;BME280;58618;47.490;8.736;2022-07-29T13:08:32;96505.09;;;26.30;52.70
70954;BME280;58618;47.490;8.736;2022-07-29T13:11:30;96505.41;;;26.22;55.82
70954;BME280;58618;47.490;8.736;2022-07-29T13:14:30;96508.03;;;26.11;52.02
70954;BME280;58618;47.490;8.736;2022-07-29T13:17:19;96511.03;;;26.13;54.03
70954;BME280;58618;47.490;8.736;2022-07-29T13:20:11;96506.84;;;25.98;55.36
70954;BME280;58618;47.490;8.736;2022-07-29T13:23:01;96506.63;;;25.55;56.42
70954;BME280;58618;47.490;8.736;2022-07-29T13:25:48;96515.63;;;25.54;55.07
70954;BME280;58618;47.490;8.736;2022-07-29T13:28:36;96517.88;;;24.98;55.22
70954;BME280;58618;47.490;8.736;2022-07-29T13:31:23;96532.25;;;24.63;61.04
70954;BME280;58618;47.490;8.736;2022-07-29T13:34:10;96543.38;;;23.86;68.45
70954;BME280;58618;47.490;8.736;2022-07-29T13:36:58;96573.22;;;23.19;74.04
70954;BME280;58618;47.490;8.736;2022-07-29T13:39:46;96588.13;;;22.30;81.27
70954;BME280;58618;47.490;8.736;2022-07-29T13:42:34;96628.25;;;21.45;84.99
70954;BME280;58618;47.490;8.736;2022-07-29T13:45:22;96635.50;;;20.25;89.56
70954;BME280;58618;47.490;8.736;2022-07-29T13:48:09;96602.19;;;19.86;91.15
70954;BME280;58618;47.490;8.736;2022-07-29T13:50:57;96598.06;;;19.60;93.48
70954;BME280;58618;47.490;8.736;2022-07-29T13:53:45;96589.28;;;19.32;96.25
70954;BME280;58618;47.490;8.736;2022-07-29T13:56:33;96594.63;;;19.35;98.92
70954;BME280;58618;47.490;8.736;2022-07-29T13:59:21;96588.84;;;19.18;98.37
70954;BME280;58618;47.490;8.736;2022-07-29T14:02:09;96593.31;;;19.17;99.10
70954;BME280;58618;47.490;8.736;2022-07-29T14:04:57;96598.44;;;19.14;96.39
70954;BME280;58618;47.490;8.736;2022-07-29T14:07:44;96591.94;;;18.99;94.03
70954;BME280;58618;47.490;8.736;2022-07-29T14:10:31;96596.81;;;18.88;96.04
70954;BME280;58618;47.490;8.736;2022-07-29T14:13:20;96594.00;;;18.81;96.47
70954;BME280;58618;47.490;8.736;2022-07-29T14:16:07;96589.50;;;18.49;95.38
70954;BME280;58618;47.490;8.736;2022-07-29T14:18:55;96595.59;;;18.53;97.02
70954;BME280;58618;47.490;8.736;2022-07-29T14:21:42;96595.88;;;18.39;97.11
70954;BME280;58618;47.490;8.736;2022-07-29T14:24:29;96598.91;;;18.21;96.63
70954;BME280;58618;47.490;8.736;2022-07-29T14:27:17;96596.25;;;18.29;99.67
70954;BME280;58618;47.490;8.736;2022-07-29T14:30:07;96607.06;;;18.19;98.35
70954;BME280;58618;47.490;8.736;2022-07-29T14:32:55;96610.63;;;18.14;98.43
70954;BME280;58618;47.490;8.736;2022-07-29T14:35:42;96621.41;;;18.34;99.66
70954;BME280;58618;47.490;8.736;2022-07-29T14:38:29;96630.41;;;18.45;96.89
70954;BME280;58618;47.490;8.736;2022-07-29T14:41:17;96624.41;;;18.44;98.01
70954;BME280;58618;47.490;8.736;2022-07-29T14:44:04;96643.69;;;18.52;96.95
70954;BME280;58618;47.490;8.736;2022-07-29T14:46:53;96653.22;;;18.56;97.08
70954;BME280;58618;47.490;8.736;2022-07-29T14:49:40;96650.47;;;18.53;98.41
70954;BME280;58618;47.490;8.736;2022-07-29T14:52:28;96645.13;;;18.49;98.81
70954;BME280;58618;47.490;8.736;2022-07-29T14:55:15;96655.50;;;18.37;96.50
70954;BME280;58618;47.490;8.736;2022-07-29T14:58:02;96649.75;;;18.44;98.10
70954;BME280;58618;47.490;8.736;2022-07-29T15:00:50;96653.47;;;18.43;97.47
70954;BME280;58618;47.490;8.736;2022-07-29T15:03:39;96660.34;;;18.47;98.07
70954;BME280;58618;47.490;8.736;2022-07-29T15:06:26;96664.97;;;18.42;98.35
70954;BME280;58618;47.490;8.736;2022-07-29T15:09:14;96670.84;;;18.39;96.75